createdAt,value
2019-03-15T00:01:42.751Z,1.27
2019-03-15T00:04:11.251Z,0.90
2019-03-15T00:06:39.670Z,0.93
2019-03-15T00:09:08.566Z,0.80
2019-03-15T00:11:37.053Z,0.77
2019-03-15T00:14:05.651Z,0.80
2019-03-15T00:16:34.294Z,0.90
2019-03-15T00:19:02.923Z,0.50
2019-03-15T00:21:31.345Z,0.70
2019-03-15T00:23:59.770Z,0.77
2019-03-15T00:26:28.182Z,0.97
2019-03-15T00:28:56.737Z,0.60
2019-03-15T00:31:25.385Z,1.10
2019-03-15T00:33:54.115Z,0.70
2019-03-15T00:36:22.571Z,0.80
2019-03-15T00:38:51.054Z,1.20
2019-03-15T00:41:19.492Z,0.90
2019-03-15T00:43:49.458Z,1.47
2019-03-15T00:46:18.071Z,1.20
2019-03-15T00:48:46.499Z,2.30
2019-03-15T00:51:15.174Z,0.87
2019-03-15T00:53:43.817Z,0.80
2019-03-15T00:56:12.519Z,0.80
2019-03-15T00:58:40.947Z,0.77
2019-03-15T01:01:09.734Z,1.07
2019-03-15T01:03:38.207Z,0.90
2019-03-15T01:06:06.622Z,0.70
2019-03-15T01:08:35.040Z,1.27
2019-03-15T01:11:03.467Z,0.87
2019-03-15T01:13:32.137Z,1.20
2019-03-15T01:16:00.565Z,1.30
2019-03-15T01:18:29.234Z,1.27
2019-03-15T01:20:57.657Z,1.37
2019-03-15T01:23:26.070Z,0.90
2019-03-15T01:25:54.494Z,1.20
2019-03-15T01:28:23.067Z,0.90
2019-03-15T01:30:51.527Z,1.30
2019-03-15T01:33:20.173Z,1.13
2019-03-15T01:35:48.650Z,1.27
2019-03-15T01:38:17.066Z,1.53
2019-03-15T01:40:48.665Z,1.40
2019-03-15T01:43:15.859Z,1.37
2019-03-15T01:45:44.326Z,1.23
2019-03-15T01:48:12.994Z,1.17
2019-03-15T01:50:41.422Z,1.40
2019-03-15T01:53:09.847Z,1.37
2019-03-15T01:55:38.511Z,0.90
2019-03-15T01:58:06.961Z,1.20
2019-03-15T02:00:35.463Z,1.30
2019-03-15T02:03:03.943Z,1.70
2019-03-15T02:05:32.371Z,1.10
2019-03-15T02:08:00.908Z,1.87
2019-03-15T02:10:29.601Z,1.60
2019-03-15T02:12:58.065Z,1.90
2019-03-15T02:15:26.738Z,2.00
2019-03-15T02:17:55.162Z,1.90
2019-03-15T02:20:23.598Z,1.50
2019-03-15T02:22:52.233Z,2.23
2019-03-15T02:25:20.685Z,1.73
2019-03-15T02:27:49.098Z,1.40
2019-03-15T02:30:17.523Z,1.97
2019-03-15T02:32:45.937Z,2.10
2019-03-15T02:35:14.368Z,2.25
2019-03-15T02:37:43.039Z,2.47
2019-03-15T02:40:12.862Z,1.90
2019-03-15T02:42:41.539Z,1.57
2019-03-15T02:45:10.046Z,2.13
2019-03-15T02:47:38.775Z,2.22
2019-03-15T02:50:08.235Z,2.50
2019-03-15T02:52:36.903Z,1.47
2019-03-15T02:55:06.465Z,1.77
2019-03-15T02:57:35.571Z,1.70
2019-03-15T03:00:06.583Z,1.95
2019-03-15T03:02:35.008Z,2.02
2019-03-15T03:05:05.068Z,1.40
2019-03-15T03:07:33.507Z,1.75
2019-03-15T03:10:02.473Z,1.35
2019-03-15T03:12:31.148Z,1.55
2019-03-15T03:14:59.560Z,1.40
2019-03-15T03:17:28.201Z,2.63
2019-03-15T03:19:56.664Z,1.75
2019-03-15T03:22:25.119Z,1.40
2019-03-15T03:24:53.546Z,1.60
2019-03-15T03:27:21.967Z,1.60
2019-03-15T03:29:50.410Z,1.70
2019-03-15T03:32:18.863Z,2.00
2019-03-15T03:34:47.369Z,2.33
2019-03-15T03:37:15.847Z,1.80
2019-03-15T03:39:44.284Z,1.60
2019-03-15T03:42:12.925Z,1.40
2019-03-15T03:44:41.413Z,1.57
2019-03-15T03:47:09.859Z,3.97
2019-03-15T03:49:38.289Z,1.47
2019-03-15T03:52:06.941Z,1.70
2019-03-15T03:54:35.389Z,1.43
2019-03-15T03:57:04.626Z,1.52
2019-03-15T03:59:33.304Z,1.30
2019-03-15T04:02:01.741Z,1.27
2019-03-15T04:04:30.398Z,1.90
2019-03-15T04:06:58.818Z,1.37
2019-03-15T04:09:27.258Z,1.67
2019-03-15T04:11:56.396Z,1.60
2019-03-15T04:14:24.968Z,2.23
2019-03-15T04:16:53.405Z,1.80
2019-03-15T04:19:21.810Z,1.20
2019-03-15T04:21:50.456Z,1.13
2019-03-15T04:24:18.929Z,1.07
2019-03-15T04:26:47.352Z,1.50
2019-03-15T04:29:15.784Z,1.30
2019-03-15T04:31:44.182Z,0.90
2019-03-15T04:34:12.607Z,1.80
2019-03-15T04:36:41.034Z,1.30
2019-03-15T04:39:09.679Z,1.03
2019-03-15T04:41:38.395Z,1.13
2019-03-15T04:44:07.027Z,1.10
2019-03-15T04:46:35.486Z,0.90
2019-03-15T04:49:04.118Z,1.20
2019-03-15T04:51:32.570Z,0.90
2019-03-15T04:54:01.243Z,1.50
2019-03-15T04:56:29.673Z,1.20
2019-03-15T04:58:58.127Z,2.10
2019-03-15T05:01:26.602Z,1.53
2019-03-15T05:03:55.528Z,1.37
2019-03-15T05:06:24.230Z,0.80
2019-03-15T05:08:52.724Z,1.27
2019-03-15T05:11:21.394Z,0.70
2019-03-15T05:13:53.022Z,1.53
2019-03-15T05:16:21.725Z,0.90
2019-03-15T05:18:50.210Z,1.80
2019-03-15T05:21:18.661Z,0.90
2019-03-15T05:23:47.087Z,1.00
2019-03-15T05:26:15.575Z,0.93
2019-03-15T05:28:44.041Z,1.67
2019-03-15T05:31:12.473Z,1.00
2019-03-15T05:33:40.894Z,1.13
2019-03-15T05:36:09.322Z,1.20
2019-03-15T05:38:37.737Z,2.27
2019-03-15T05:41:06.180Z,1.17
2019-03-15T05:43:34.806Z,1.07
2019-03-15T05:46:03.272Z,1.00
2019-03-15T05:48:31.681Z,0.90
2019-03-15T05:51:00.124Z,1.07
2019-03-15T05:53:28.544Z,1.00
2019-03-15T05:55:56.975Z,1.60
2019-03-15T05:58:25.435Z,1.00
2019-03-15T06:00:56.731Z,1.57
2019-03-15T06:03:25.210Z,1.27
2019-03-15T06:05:53.603Z,1.47
2019-03-15T06:08:22.241Z,1.40
2019-03-15T06:10:50.713Z,1.43
2019-03-15T06:13:19.351Z,1.60
2019-03-15T06:15:47.817Z,1.40
2019-03-15T06:18:16.503Z,1.73
2019-03-15T06:20:44.922Z,1.97
2019-03-15T06:23:16.702Z,2.00
2019-03-15T06:25:43.757Z,1.90
2019-03-15T06:28:12.201Z,1.70
2019-03-15T06:30:40.859Z,1.80
2019-03-15T06:33:09.544Z,2.63
2019-03-15T06:35:37.994Z,2.00
2019-03-15T06:38:06.421Z,2.50
2019-03-15T06:40:35.103Z,2.43
2019-03-15T06:43:03.552Z,1.27
2019-03-15T06:45:32.132Z,1.33
2019-03-15T06:48:00.975Z,1.23
2019-03-15T06:50:29.620Z,2.10
2019-03-15T06:52:58.033Z,1.20
2019-03-15T06:55:26.471Z,1.63
2019-03-15T06:57:55.100Z,1.50
2019-03-15T07:00:23.572Z,1.70
2019-03-15T07:02:51.993Z,1.30
2019-03-15T07:05:20.817Z,1.20
2019-03-15T07:07:49.502Z,1.30
2019-03-15T07:10:17.928Z,1.10
2019-03-15T07:12:46.587Z,1.20
2019-03-15T07:15:15.273Z,1.70
2019-03-15T07:17:43.688Z,1.37
2019-03-15T07:20:14.052Z,1.00
2019-03-15T07:22:42.467Z,0.70
2019-03-15T07:25:11.230Z,1.07
2019-03-15T07:27:42.571Z,0.80
2019-03-15T07:30:15.591Z,1.03
2019-03-15T07:32:44.009Z,1.20
2019-03-15T07:35:12.434Z,1.23
2019-03-15T07:37:40.884Z,1.90
2019-03-15T07:40:15.239Z,1.33
2019-03-15T07:42:43.655Z,0.90
2019-03-15T07:45:13.828Z,1.93
2019-03-15T07:47:42.265Z,1.20
2019-03-15T07:50:14.284Z,0.70
2019-03-15T07:52:42.884Z,1.20
2019-03-15T07:55:11.788Z,1.20
2019-03-15T07:57:40.444Z,1.70
2019-03-15T08:00:17.130Z,1.10
2019-03-15T08:02:45.605Z,1.27
2019-03-15T08:05:14.261Z,2.37
2019-03-15T08:07:45.631Z,1.03
2019-03-15T08:10:13.285Z,1.00
2019-03-15T08:12:41.750Z,2.63
2019-03-15T08:15:13.846Z,2.43
2019-03-15T08:17:42.287Z,1.40
2019-03-15T08:20:13.356Z,2.43
2019-03-15T08:22:41.783Z,3.05
2019-03-15T08:25:17.559Z,3.33
2019-03-15T08:27:41.377Z,2.33
2019-03-15T08:30:15.214Z,3.50
2019-03-15T08:32:44.187Z,0.70
2019-03-15T08:38:51.258Z,0.60
2019-03-15T08:41:28.231Z,0.57
2019-03-15T08:43:56.739Z,0.60
2019-03-15T08:46:25.345Z,0.83
2019-03-15T08:48:54.771Z,0.65
2019-03-15T08:51:23.210Z,0.60
2019-03-15T08:53:51.707Z,0.77
2019-03-15T08:56:20.134Z,0.67
2019-03-15T08:58:48.836Z,0.80
2019-03-15T09:01:17.273Z,0.50
2019-03-15T09:03:45.683Z,0.60
2019-03-15T09:06:14.341Z,0.50
2019-03-15T09:08:42.808Z,0.67
2019-03-15T09:11:11.260Z,0.50
2019-03-15T09:13:39.746Z,0.53
2019-03-15T09:16:08.272Z,0.33
2019-03-15T09:18:36.686Z,0.60
2019-03-15T09:21:05.150Z,0.50
2019-03-15T09:23:33.714Z,0.47
2019-03-15T09:26:02.415Z,0.40
2019-03-15T09:28:30.894Z,0.50
2019-03-15T09:30:59.324Z,0.62
2019-03-15T09:33:27.752Z,0.60
2019-03-15T09:35:56.180Z,0.60
2019-03-15T09:38:24.673Z,0.50
2019-03-15T09:40:53.199Z,0.40
2019-03-15T09:43:21.653Z,0.50
2019-03-15T09:45:50.083Z,0.53
2019-03-15T09:48:18.531Z,0.40
2019-03-15T09:50:51.513Z,0.70
2019-03-15T09:53:17.138Z,0.80
2019-03-15T09:55:45.574Z,0.50
2019-03-15T09:58:14.834Z,0.40
2019-03-15T10:00:43.288Z,0.53
2019-03-15T10:03:21.575Z,0.57
2019-03-15T10:05:41.921Z,0.40
2019-03-15T10:08:10.398Z,0.40
2019-03-15T10:10:38.905Z,0.60
2019-03-15T10:13:07.358Z,0.57
2019-03-15T10:15:35.823Z,0.40
2019-03-15T10:18:04.369Z,0.40
2019-03-15T10:20:32.790Z,0.40
2019-03-15T10:23:06.140Z,0.40
2019-03-15T10:25:31.367Z,0.50
2019-03-15T10:27:59.879Z,0.40
2019-03-15T10:30:28.366Z,0.37
2019-03-15T10:32:56.823Z,0.60
2019-03-15T10:35:25.232Z,0.53
2019-03-15T10:37:53.674Z,0.60
2019-03-15T10:40:25.126Z,0.47
2019-03-15T10:42:55.578Z,0.67
2019-03-15T10:45:23.763Z,0.40
2019-03-15T10:47:52.226Z,0.40
2019-03-15T10:50:20.849Z,0.53
2019-03-15T10:52:49.377Z,0.60
2019-03-15T10:55:20.515Z,0.50
2019-03-15T10:57:48.046Z,0.40
2019-03-15T11:00:20.318Z,0.50
2019-03-15T11:02:48.979Z,0.60
2019-03-15T11:05:17.526Z,0.70
2019-03-15T11:07:46.304Z,0.50
2019-03-15T11:10:14.980Z,0.70
2019-03-15T11:12:43.435Z,0.70
2019-03-15T11:15:14.235Z,0.70
2019-03-15T11:17:42.663Z,0.70
2019-03-15T11:20:12.020Z,0.60
2019-03-15T11:22:40.451Z,0.50
2019-03-15T11:25:10.689Z,0.70
2019-03-15T11:27:39.187Z,0.70
2019-03-15T11:30:10.251Z,0.60
2019-03-15T11:32:38.723Z,0.57
2019-03-15T11:35:08.718Z,0.90
2019-03-15T11:37:37.143Z,0.50
2019-03-15T11:40:08.570Z,0.50
2019-03-15T11:42:37.212Z,0.43
2019-03-15T11:45:07.515Z,0.40
2019-03-15T11:48:00.729Z,0.43
2019-03-15T11:50:11.900Z,0.40
2019-03-15T11:52:40.418Z,0.50
2019-03-15T11:55:09.908Z,0.50
2019-03-15T11:57:38.355Z,0.40
2019-03-15T12:00:12.355Z,0.40
2019-03-15T12:02:40.802Z,0.50
2019-03-15T12:05:09.283Z,0.40
2019-03-15T12:07:37.716Z,0.40
2019-03-15T12:10:08.746Z,0.70
2019-03-15T12:12:37.411Z,0.50
2019-03-15T12:15:13.048Z,0.40
2019-03-15T12:17:41.688Z,0.53
2019-03-15T12:20:11.301Z,0.40
2019-03-15T12:22:39.799Z,0.40
2019-03-15T12:25:09.559Z,0.60
2019-03-15T12:27:38.198Z,0.40
2019-03-15T12:30:18.726Z,0.50
2019-03-15T12:32:47.156Z,0.40
2019-03-15T12:35:16.337Z,0.43
2019-03-15T12:37:45.046Z,0.50
2019-03-15T12:40:17.555Z,0.47
2019-03-15T12:42:45.970Z,0.50
2019-03-15T12:45:15.162Z,0.50
2019-03-15T12:47:43.584Z,0.50
2019-03-15T12:50:14.030Z,0.50
2019-03-15T12:52:47.738Z,0.40
2019-03-15T12:55:14.779Z,0.40
2019-03-15T12:57:43.598Z,0.40
2019-03-15T13:00:15.952Z,0.40
2019-03-15T13:02:44.428Z,0.40
2019-03-15T13:05:13.146Z,0.40
2019-03-15T13:07:41.568Z,0.40
2019-03-15T13:10:15.835Z,0.40
2019-03-15T13:12:44.403Z,0.40
2019-03-15T13:15:15.383Z,0.50
2019-03-15T13:17:43.936Z,0.40
2019-03-15T13:20:14.547Z,0.40
2019-03-15T13:22:42.985Z,0.40
2019-03-15T13:25:12.358Z,0.30
2019-03-15T13:27:40.801Z,0.40
2019-03-15T13:30:11.812Z,0.50
2019-03-15T13:32:40.252Z,0.40
2019-03-15T13:35:09.200Z,0.40
2019-03-15T13:37:37.762Z,0.43
2019-03-15T13:40:14.259Z,0.50
2019-03-15T13:42:42.679Z,0.40
2019-03-15T13:45:12.355Z,0.50
2019-03-15T13:47:40.780Z,0.40
2019-03-15T13:50:17.314Z,0.40
2019-03-15T13:52:45.733Z,0.40
2019-03-15T13:55:14.600Z,0.80
2019-03-15T13:57:43.172Z,0.40
2019-03-15T14:00:17.057Z,0.37
2019-03-15T14:02:45.845Z,0.40
2019-03-15T14:05:15.356Z,0.40
2019-03-15T14:07:44.195Z,0.50
2019-03-15T14:10:16.872Z,0.50
2019-03-15T14:12:45.425Z,0.40
2019-03-15T14:15:20.672Z,0.40
2019-03-15T14:17:49.322Z,0.50
2019-03-15T14:20:18.310Z,0.40
2019-03-15T14:22:47.020Z,0.50
2019-03-15T14:25:18.287Z,0.47
2019-03-15T14:27:47.050Z,0.50
2019-03-15T14:30:15.693Z,0.50
2019-03-15T14:32:44.240Z,0.50
2019-03-15T14:35:13.235Z,0.40
2019-03-15T14:37:42.009Z,0.40
2019-03-15T14:40:11.895Z,0.50
2019-03-15T14:42:41.116Z,0.60
2019-03-15T14:45:13.763Z,0.50
2019-03-15T14:47:42.600Z,0.47
2019-03-15T14:50:12.515Z,0.40
2019-03-15T14:52:41.043Z,0.50
2019-03-15T14:55:12.259Z,0.40
2019-03-15T14:57:51.333Z,0.40
2019-03-15T15:00:13.488Z,0.60
2019-03-15T15:02:42.419Z,0.40
2019-03-15T15:05:12.127Z,0.40
2019-03-15T15:07:40.970Z,0.40
2019-03-15T15:10:11.939Z,0.53
2019-03-15T15:12:40.685Z,0.53
2019-03-15T15:15:17.627Z,0.60
2019-03-15T15:17:46.193Z,0.50
2019-03-15T15:20:14.891Z,0.50
2019-03-15T15:22:43.463Z,0.50
2019-03-15T15:25:14.504Z,0.50
2019-03-15T15:27:43.309Z,0.40
2019-03-15T15:30:16.208Z,0.70
2019-03-15T15:32:45.014Z,0.30
2019-03-15T15:35:14.579Z,0.30
2019-03-15T15:37:43.315Z,0.40
2019-03-15T15:40:14.292Z,0.40
2019-03-15T15:42:43.451Z,0.50
2019-03-15T15:45:12.749Z,0.70
2019-03-15T15:47:41.635Z,0.50
2019-03-15T15:50:12.779Z,0.50
2019-03-15T15:52:41.648Z,0.40
2019-03-15T15:55:12.675Z,0.40
2019-03-15T15:57:41.505Z,0.50
2019-03-15T16:00:14.507Z,0.40
2019-03-15T16:02:43.323Z,0.63
2019-03-15T16:05:12.171Z,0.70
2019-03-15T16:07:41.057Z,0.30
2019-03-15T16:10:17.992Z,0.40
2019-03-15T16:12:46.081Z,0.50
2019-03-15T16:15:16.654Z,0.50
2019-03-15T16:17:45.977Z,0.40
2019-03-15T16:20:14.882Z,0.50
2019-03-15T16:22:43.398Z,0.60
2019-03-15T16:25:12.478Z,0.40
2019-03-15T16:27:41.014Z,0.60
2019-03-15T16:30:17.467Z,0.43
2019-03-15T16:32:46.156Z,0.40
2019-03-15T16:35:14.748Z,0.50
2019-03-15T16:37:43.183Z,0.50
2019-03-15T16:40:12.637Z,0.60
2019-03-15T16:42:41.064Z,0.57
2019-03-15T16:45:18.259Z,0.60
2019-03-15T16:47:46.746Z,0.70
2019-03-15T16:50:15.180Z,0.50
2019-03-15T16:52:43.636Z,0.70
2019-03-15T16:55:12.720Z,0.60
2019-03-15T16:57:41.224Z,0.50
2019-03-15T17:00:14.139Z,0.60
2019-03-15T17:02:42.648Z,0.57
2019-03-15T17:05:13.288Z,0.70
2019-03-15T17:07:42.001Z,0.50
2019-03-15T17:10:11.968Z,0.50
2019-03-15T17:12:40.411Z,0.40
2019-03-15T17:15:14.871Z,0.50
2019-03-15T17:17:43.316Z,0.60
2019-03-15T17:20:12.097Z,0.93
2019-03-15T17:22:40.560Z,0.40
2019-03-15T17:25:11.069Z,0.50
2019-03-15T17:27:42.556Z,0.50
2019-03-15T17:30:15.849Z,0.90
2019-03-15T17:32:44.388Z,0.60
2019-03-15T17:35:14.605Z,0.60
2019-03-15T17:37:43.335Z,0.60
2019-03-15T17:40:15.852Z,0.60
2019-03-15T17:42:44.288Z,0.60
2019-03-15T17:45:12.874Z,0.73
2019-03-15T17:47:41.322Z,0.83
2019-03-15T17:50:15.147Z,0.67
2019-03-15T17:52:43.586Z,0.50
2019-03-15T17:55:12.493Z,0.67
2019-03-15T17:57:40.997Z,0.80
2019-03-15T18:00:36.978Z,1.70
2019-03-15T18:03:19.748Z,0.80
2019-03-15T18:05:36.861Z,0.60
2019-03-15T18:08:05.364Z,0.63
2019-03-15T18:10:33.787Z,0.60
2019-03-15T18:13:02.291Z,0.77
2019-03-15T18:15:30.714Z,0.50
2019-03-15T18:18:00.077Z,0.73
2019-03-15T18:20:29.091Z,0.53
2019-03-15T18:22:57.909Z,0.63
2019-03-15T18:25:26.374Z,0.67
2019-03-15T18:27:54.823Z,0.90
2019-03-15T18:30:23.352Z,0.70
2019-03-15T18:32:52.123Z,0.80
2019-03-15T18:35:32.875Z,0.53
2019-03-15T18:37:51.091Z,2.60
2019-03-15T18:40:20.424Z,0.90
2019-03-15T18:42:49.093Z,0.70
2019-03-15T18:45:18.408Z,0.60
2019-03-15T18:47:46.945Z,0.53
2019-03-15T18:50:24.051Z,0.50
2019-03-15T18:52:52.738Z,0.60
2019-03-15T18:55:21.273Z,0.90
2019-03-15T18:57:49.829Z,0.53
2019-03-15T19:00:20.651Z,0.60
2019-03-15T19:02:49.090Z,0.53
2019-03-15T19:05:17.634Z,0.70
2019-03-15T19:07:46.142Z,0.60
2019-03-15T19:10:15.593Z,1.00
2019-03-15T19:12:44.119Z,0.50
2019-03-15T19:15:17.263Z,0.63
2019-03-15T19:17:45.942Z,0.77
2019-03-15T19:20:15.307Z,0.80
2019-03-15T19:22:43.830Z,1.10
2019-03-15T19:25:13.012Z,0.60
2019-03-15T19:27:41.439Z,0.90
2019-03-15T19:30:19.708Z,0.70
2019-03-15T19:32:48.133Z,0.60
2019-03-15T19:35:16.554Z,0.50
2019-03-15T19:37:45.665Z,0.60
2019-03-15T19:40:18.694Z,0.50
2019-03-15T19:42:47.347Z,0.60
2019-03-15T19:45:16.646Z,0.90
2019-03-15T19:47:45.171Z,0.50
2019-03-15T19:50:15.235Z,0.43
2019-03-15T19:52:43.951Z,0.50
2019-03-15T19:55:13.963Z,0.40
2019-03-15T19:57:42.624Z,0.40
2019-03-15T20:00:13.820Z,0.30
2019-03-15T20:02:42.318Z,0.50
2019-03-15T20:05:10.928Z,0.50
2019-03-15T20:07:39.466Z,0.40
2019-03-15T20:10:11.055Z,0.50
2019-03-15T20:12:39.558Z,0.50
2019-03-15T20:15:10.319Z,0.40
2019-03-15T20:17:38.991Z,0.40
2019-03-15T20:20:12.534Z,0.50
2019-03-15T20:22:41.207Z,0.40
2019-03-15T20:25:11.826Z,0.40
2019-03-15T20:27:40.247Z,0.40
2019-03-15T20:30:21.053Z,0.40
2019-03-15T20:32:42.192Z,0.40
2019-03-15T20:35:10.847Z,0.50
2019-03-15T20:37:39.528Z,0.50
2019-03-15T20:40:10.608Z,0.50
2019-03-15T20:42:39.272Z,0.40
2019-03-15T20:45:16.271Z,0.50
2019-03-15T20:47:44.783Z,0.60
2019-03-15T20:50:14.124Z,0.50
2019-03-15T20:52:42.566Z,0.40
2019-03-15T20:55:11.226Z,0.43
2019-03-15T20:57:39.704Z,0.40
2019-03-15T21:00:13.769Z,0.40
2019-03-15T21:02:42.506Z,0.50
2019-03-15T21:05:10.967Z,0.40
2019-03-15T21:07:39.393Z,0.43
2019-03-15T21:10:10.570Z,0.40
2019-03-15T21:12:39.054Z,0.40
2019-03-15T21:15:10.479Z,0.40
2019-03-15T21:17:39.140Z,0.47
2019-03-15T21:20:10.772Z,0.50
2019-03-15T21:22:39.191Z,0.50
2019-03-15T21:25:09.916Z,0.50
2019-03-15T21:27:38.332Z,0.40
2019-03-15T21:30:23.569Z,0.50
2019-03-15T21:32:51.986Z,0.30
2019-03-15T21:35:20.413Z,0.40
2019-03-15T21:37:48.998Z,0.43
2019-03-15T21:40:18.992Z,0.40
2019-03-15T21:42:47.426Z,0.40
2019-03-15T21:45:15.901Z,0.43
2019-03-15T21:47:44.367Z,0.40
2019-03-15T21:50:17.953Z,0.37
2019-03-15T21:52:46.610Z,0.40
2019-03-15T21:55:15.089Z,0.30
2019-03-15T21:57:43.516Z,0.40
2019-03-15T22:00:19.335Z,0.40
2019-03-15T22:02:47.980Z,0.50
2019-03-15T22:05:16.518Z,0.40
2019-03-15T22:07:44.929Z,0.40
2019-03-15T22:10:14.590Z,0.40
2019-03-15T22:12:43.290Z,0.50
2019-03-15T22:15:12.826Z,0.40
2019-03-15T22:17:41.443Z,0.50
2019-03-15T22:20:13.726Z,0.40
2019-03-15T22:22:42.139Z,0.47
2019-03-15T22:25:10.785Z,0.40
2019-03-15T22:27:39.257Z,0.40
2019-03-15T22:30:12.823Z,0.40
2019-03-15T22:32:41.330Z,0.40
2019-03-15T22:35:10.034Z,0.40
2019-03-15T22:37:38.487Z,0.43
2019-03-15T22:40:09.347Z,0.30
2019-03-15T22:42:38.406Z,0.40
2019-03-15T22:45:11.517Z,0.40
2019-03-15T22:47:40.023Z,0.50
2019-03-15T22:50:10.242Z,0.50
2019-03-15T22:52:38.912Z,0.40
2019-03-15T22:55:08.789Z,0.40
2019-03-15T22:57:37.419Z,0.30
2019-03-15T23:00:16.485Z,0.40
2019-03-15T23:02:44.984Z,0.43
2019-03-15T23:05:14.098Z,0.40
2019-03-15T23:07:42.749Z,0.40
2019-03-15T23:10:11.503Z,0.60
2019-03-15T23:12:39.963Z,0.40
2019-03-15T23:15:12.950Z,0.40
2019-03-15T23:17:41.429Z,0.40
2019-03-15T23:20:11.868Z,0.40
2019-03-15T23:22:40.271Z,0.50
2019-03-15T23:25:09.471Z,0.40
2019-03-15T23:27:37.894Z,0.40
2019-03-15T23:30:14.240Z,0.40
2019-03-15T23:32:42.650Z,0.30
2019-03-15T23:35:11.113Z,0.40
2019-03-15T23:37:39.596Z,0.40
2019-03-15T23:40:10.759Z,0.40
2019-03-15T23:42:39.194Z,0.30
2019-03-15T23:45:09.585Z,0.40
2019-03-15T23:47:38.310Z,0.50
2019-03-15T23:50:13.780Z,0.50
2019-03-15T23:52:42.274Z,0.30
2019-03-15T23:55:10.787Z,0.40
2019-03-15T23:57:39.436Z,0.40
